Memphis (MEM/KMEM)

Map

Destinations

Information

Location
Memphis, TN
Local Time
18:27 / 6:27 pm
GMT Time
00:27 / 12:27 am
Gates
Unassigned
No FAA reported delays
METAR KMEM 222354Z 30006KT 2 1/2SM RA BR SCT004 BKN008 OVC014 12/12 A2935 RMK AO2 SFC VIS 5 SLP938 P0007 60014 T01170117 10139 20117 53014
TAF KMEM 222330Z 2300/2324 24003KT P6SM -SHRA SCT018 OVC030 FM230100 32017G26KT P6SM -SHRA BKN008 OVC025 FM230400 33018G28KT P6SM BKN006 OVC015 FM231400 34010G18KT P6SM SCT008 BKN025 FM232100 33007KT P6SM BKN035
  • No charts available